sensor_id;sensor_type;location;lat;lon;timestamp;pressure;altitude;pressure_sealevel;temperature;humidity
43420;BME280;29017;51.514;-0.178;2022-08-20T00:01:37;101294.91;;;20.44;60.09
43420;BME280;29017;51.514;-0.178;2022-08-20T00:04:04;101300.28;;;20.44;60.17
43420;BME280;29017;51.514;-0.178;2022-08-20T00:06:32;101296.97;;;20.42;60.45
43420;BME280;29017;51.514;-0.178;2022-08-20T00:09:00;101299.03;;;20.40;61.14
43420;BME280;29017;51.514;-0.178;2022-08-20T00:11:27;101311.59;;;20.40;60.72
43420;BME280;29017;51.514;-0.178;2022-08-20T00:13:57;101315.69;;;20.36;60.77
43420;BME280;29017;51.514;-0.178;2022-08-20T00:16:26;101307.88;;;20.34;61.84
43420;BME280;29017;51.514;-0.178;2022-08-20T00:18:59;101310.53;;;20.34;61.29
43420;BME280;29017;51.514;-0.178;2022-08-20T00:21:27;101306.41;;;20.32;61.05
43420;BME280;29017;51.514;-0.178;2022-08-20T00:23:56;101303.31;;;20.28;60.92
43420;BME280;29017;51.514;-0.178;2022-08-20T00:26:24;101300.44;;;20.23;61.50
43420;BME280;29017;51.514;-0.178;2022-08-20T00:28:51;101299.81;;;20.21;61.19
43420;BME280;29017;51.514;-0.178;2022-08-20T00:31:21;101300.03;;;20.20;62.50
43420;BME280;29017;51.514;-0.178;2022-08-20T00:33:50;101292.19;;;20.18;61.54
43420;BME280;29017;51.514;-0.178;2022-08-20T00:36:18;101299.38;;;20.18;61.71
43420;BME280;29017;51.514;-0.178;2022-08-20T00:38:46;101301.88;;;20.19;62.87
43420;BME280;29017;51.514;-0.178;2022-08-20T00:41:20;101296.53;;;20.19;61.42
43420;BME280;29017;51.514;-0.178;2022-08-20T00:44:14;101299.81;;;20.15;61.14
43420;BME280;29017;51.514;-0.178;2022-08-20T00:46:41;101285.81;;;20.13;61.84
43420;BME280;29017;51.514;-0.178;2022-08-20T00:49:22;101285.22;;;20.11;61.58
43420;BME280;29017;51.514;-0.178;2022-08-20T00:52:11;101293.22;;;20.11;62.27
43420;BME280;29017;51.514;-0.178;2022-08-20T00:54:52;101289.94;;;20.08;61.70
43420;BME280;29017;51.514;-0.178;2022-08-20T00:57:28;101290.53;;;20.04;61.49
43420;BME280;29017;51.514;-0.178;2022-08-20T01:00:21;101287.47;;;20.00;62.04
43420;BME280;29017;51.514;-0.178;2022-08-20T01:02:48;101292.38;;;19.97;62.15
43420;BME280;29017;51.514;-0.178;2022-08-20T01:05:16;101297.94;;;19.95;63.84
43420;BME280;29017;51.514;-0.178;2022-08-20T01:07:44;101298.13;;;19.94;62.81
43420;BME280;29017;51.514;-0.178;2022-08-20T01:10:18;101300.81;;;19.94;62.86
43420;BME280;29017;51.514;-0.178;2022-08-20T01:12:47;101304.47;;;19.86;63.19
43420;BME280;29017;51.514;-0.178;2022-08-20T01:15:26;101306.72;;;19.83;64.20
43420;BME280;29017;51.514;-0.178;2022-08-20T01:17:58;101304.06;;;19.83;63.73
43420;BME280;29017;51.514;-0.178;2022-08-20T01:20:32;101310.19;;;19.77;63.66
43420;BME280;29017;51.514;-0.178;2022-08-20T01:31:05;101314.31;;;19.79;63.91
43420;BME280;29017;51.514;-0.178;2022-08-20T01:33:38;101317.78;;;19.73;63.81
43420;BME280;29017;51.514;-0.178;2022-08-20T01:36:13;101318.00;;;19.65;64.45
43420;BME280;29017;51.514;-0.178;2022-08-20T01:38:41;101315.69;;;19.62;64.99
43420;BME280;29017;51.514;-0.178;2022-08-20T01:43:55;101310.38;;;19.69;64.43
43420;BME280;29017;51.514;-0.178;2022-08-20T01:46:30;101299.91;;;19.67;64.95
43420;BME280;29017;51.514;-0.178;2022-08-20T01:51:51;101297.84;;;19.62;65.05
43420;BME280;29017;51.514;-0.178;2022-08-20T01:54:20;101297.41;;;19.59;65.56
43420;BME280;29017;51.514;-0.178;2022-08-20T01:57:03;101307.47;;;19.57;65.40
43420;BME280;29017;51.514;-0.178;2022-08-20T01:59:31;101306.84;;;19.55;65.00
43420;BME280;29017;51.514;-0.178;2022-08-20T02:02:00;101305.59;;;19.51;64.84
43420;BME280;29017;51.514;-0.178;2022-08-20T02:04:28;101305.16;;;19.47;64.95
43420;BME280;29017;51.514;-0.178;2022-08-20T02:07:00;101301.91;;;19.45;65.40
43420;BME280;29017;51.514;-0.178;2022-08-20T02:09:30;101300.81;;;19.40;65.54
43420;BME280;29017;51.514;-0.178;2022-08-20T02:11:58;101306.53;;;19.37;65.44
43420;BME280;29017;51.514;-0.178;2022-08-20T02:14:26;101306.72;;;19.35;66.41
43420;BME280;29017;51.514;-0.178;2022-08-20T02:16:54;101312.28;;;19.34;65.90
43420;BME280;29017;51.514;-0.178;2022-08-20T02:19:33;101307.13;;;19.32;65.70
43420;BME280;29017;51.514;-0.178;2022-08-20T02:22:19;101312.22;;;19.27;66.09
43420;BME280;29017;51.514;-0.178;2022-08-20T02:24:47;101302.56;;;19.26;66.66
43420;BME280;29017;51.514;-0.178;2022-08-20T02:27:15;101305.47;;;19.25;66.36
43420;BME280;29017;51.514;-0.178;2022-08-20T02:29:42;101309.34;;;19.22;66.53
43420;BME280;29017;51.514;-0.178;2022-08-20T02:32:09;101311.16;;;19.21;66.77
43420;BME280;29017;51.514;-0.178;2022-08-20T02:34:57;101308.69;;;19.20;66.85
43420;BME280;29017;51.514;-0.178;2022-08-20T02:37:24;101314.25;;;19.18;66.07
43420;BME280;29017;51.514;-0.178;2022-08-20T02:39:51;101306.63;;;19.15;66.55
43420;BME280;29017;51.514;-0.178;2022-08-20T02:42:18;101305.78;;;19.15;66.93
43420;BME280;29017;51.514;-0.178;2022-08-20T02:44:45;101305.78;;;19.15;66.97
43420;BME280;29017;51.514;-0.178;2022-08-20T02:47:12;101306.19;;;19.12;67.13
43420;BME280;29017;51.514;-0.178;2022-08-20T02:49:39;101300.22;;;19.10;67.82
43420;BME280;29017;51.514;-0.178;2022-08-20T02:52:06;101297.13;;;19.06;67.44
43420;BME280;29017;51.514;-0.178;2022-08-20T02:54:34;101296.53;;;19.04;67.57
43420;BME280;29017;51.514;-0.178;2022-08-20T02:57:01;101302.41;;;19.00;67.89
43420;BME280;29017;51.514;-0.178;2022-08-20T02:59:30;101296.84;;;18.95;67.93
43420;BME280;29017;51.514;-0.178;2022-08-20T03:01:57;101292.75;;;18.92;68.03
43420;BME280;29017;51.514;-0.178;2022-08-20T03:04:29;101292.09;;;18.90;68.12
43420;BME280;29017;51.514;-0.178;2022-08-20T03:06:58;101296.84;;;18.88;68.50
43420;BME280;29017;51.514;-0.178;2022-08-20T03:09:26;101294.53;;;18.85;68.81
43420;BME280;29017;51.514;-0.178;2022-08-20T03:11:53;101289.41;;;18.84;68.80
43420;BME280;29017;51.514;-0.178;2022-08-20T03:14:20;101294.09;;;18.82;69.07
43420;BME280;29017;51.514;-0.178;2022-08-20T03:16:47;101293.47;;;18.79;69.32
43420;BME280;29017;51.514;-0.178;2022-08-20T03:19:14;101290.00;;;18.79;69.04
43420;BME280;29017;51.514;-0.178;2022-08-20T03:21:41;101285.03;;;18.76;69.29
43420;BME280;29017;51.514;-0.178;2022-08-20T03:24:09;101287.91;;;18.74;70.27
43420;BME280;29017;51.514;-0.178;2022-08-20T03:26:36;101289.75;;;18.74;70.16
43420;BME280;29017;51.514;-0.178;2022-08-20T03:29:04;101292.63;;;18.72;69.78
43420;BME280;29017;51.514;-0.178;2022-08-20T03:31:31;101296.28;;;18.71;69.98
43420;BME280;29017;51.514;-0.178;2022-08-20T03:33:58;101287.22;;;18.66;69.96
43420;BME280;29017;51.514;-0.178;2022-08-20T03:36:27;101288.63;;;18.62;70.46
43420;BME280;29017;51.514;-0.178;2022-08-20T03:38:57;101290.91;;;18.65;70.82
43420;BME280;29017;51.514;-0.178;2022-08-20T03:41:25;101297.72;;;18.67;70.49
43420;BME280;29017;51.514;-0.178;2022-08-20T03:43:52;101299.38;;;18.68;70.71
43420;BME280;29017;51.514;-0.178;2022-08-20T03:46:20;101302.22;;;18.67;70.74
43420;BME280;29017;51.514;-0.178;2022-08-20T03:48:52;101300.97;;;18.63;71.11
43420;BME280;29017;51.514;-0.178;2022-08-20T03:51:29;101297.66;;;18.61;70.89
43420;BME280;29017;51.514;-0.178;2022-08-20T03:54:11;101298.66;;;18.60;71.24
43420;BME280;29017;51.514;-0.178;2022-08-20T03:56:38;101294.38;;;18.59;71.50
43420;BME280;29017;51.514;-0.178;2022-08-20T03:59:05;101289.84;;;18.59;72.11
43420;BME280;29017;51.514;-0.178;2022-08-20T04:01:32;101298.41;;;18.55;71.56
43420;BME280;29017;51.514;-0.178;2022-08-20T04:04:11;101287.13;;;18.53;71.75
43420;BME280;29017;51.514;-0.178;2022-08-20T04:06:40;101286.66;;;18.49;72.20
43420;BME280;29017;51.514;-0.178;2022-08-20T04:09:08;101285.66;;;18.50;72.37
43420;BME280;29017;51.514;-0.178;2022-08-20T04:11:38;101293.63;;;18.50;72.03
43420;BME280;29017;51.514;-0.178;2022-08-20T04:14:06;101292.56;;;18.45;72.16
43420;BME280;29017;51.514;-0.178;2022-08-20T04:16:34;101293.78;;;18.42;72.55
43420;BME280;29017;51.514;-0.178;2022-08-20T04:19:03;101292.31;;;18.39;72.35
43420;BME280;29017;51.514;-0.178;2022-08-20T04:21:32;101293.53;;;18.37;72.44
43420;BME280;29017;51.514;-0.178;2022-08-20T04:24:01;101282.88;;;18.37;72.64
43420;BME280;29017;51.514;-0.178;2022-08-20T04:26:30;101289.88;;;18.38;72.96
43420;BME280;29017;51.514;-0.178;2022-08-20T04:28:57;101286.56;;;18.36;72.84
43420;BME280;29017;51.514;-0.178;2022-08-20T04:31:24;101288.78;;;18.32;72.45
43420;BME280;29017;51.514;-0.178;2022-08-20T04:34:03;101295.53;;;18.28;72.54
43420;BME280;29017;51.514;-0.178;2022-08-20T04:36:34;101300.84;;;18.28;73.52
43420;BME280;29017;51.514;-0.178;2022-08-20T04:39:01;101301.66;;;18.29;73.57
43420;BME280;29017;51.514;-0.178;2022-08-20T04:41:29;101306.38;;;18.27;73.03
43420;BME280;29017;51.514;-0.178;2022-08-20T04:43:57;101312.06;;;18.24;72.71
43420;BME280;29017;51.514;-0.178;2022-08-20T04:46:25;101304.84;;;18.18;73.22
43420;BME280;29017;51.514;-0.178;2022-08-20T04:48:55;101311.38;;;18.15;73.04
43420;BME280;29017;51.514;-0.178;2022-08-20T04:51:23;101309.72;;;18.14;73.92
43420;BME280;29017;51.514;-0.178;2022-08-20T04:53:53;101305.44;;;18.13;73.64
43420;BME280;29017;51.514;-0.178;2022-08-20T04:56:23;101310.53;;;18.15;73.68
43420;BME280;29017;51.514;-0.178;2022-08-20T04:58:54;101312.78;;;18.11;73.24
43420;BME280;29017;51.514;-0.178;2022-08-20T05:01:23;101301.88;;;18.06;73.88
43420;BME280;29017;51.514;-0.178;2022-08-20T05:03:51;101304.72;;;18.05;73.70
43420;BME280;29017;51.514;-0.178;2022-08-20T05:06:23;101299.19;;;18.06;73.74
43420;BME280;29017;51.514;-0.178;2022-08-20T05:08:52;101310.28;;;18.10;74.33
43420;BME280;29017;51.514;-0.178;2022-08-20T05:11:21;101306.22;;;18.14;74.48
43420;BME280;29017;51.514;-0.178;2022-08-20T05:14:03;101299.44;;;18.11;73.51
43420;BME280;29017;51.514;-0.178;2022-08-20T05:16:30;101311.13;;;18.10;73.57
43420;BME280;29017;51.514;-0.178;2022-08-20T05:19:04;101317.28;;;18.11;74.05
43420;BME280;29017;51.514;-0.178;2022-08-20T05:21:32;101307.63;;;18.10;74.05
43420;BME280;29017;51.514;-0.178;2022-08-20T05:23:59;101313.53;;;18.05;73.99
43420;BME280;29017;51.514;-0.178;2022-08-20T05:26:26;101321.50;;;18.05;74.04
43420;BME280;29017;51.514;-0.178;2022-08-20T05:28:53;101323.16;;;18.06;74.55
43420;BME280;29017;51.514;-0.178;2022-08-20T05:31:28;101325.84;;;18.06;74.53
43420;BME280;29017;51.514;-0.178;2022-08-20T05:34:10;101328.09;;;18.09;74.55
43420;BME280;29017;51.514;-0.178;2022-08-20T05:36:47;101339.22;;;18.13;74.35
43420;BME280;29017;51.514;-0.178;2022-08-20T05:39:20;101328.75;;;18.11;73.97
43420;BME280;29017;51.514;-0.178;2022-08-20T05:41:48;101340.41;;;18.10;74.08
43420;BME280;29017;51.514;-0.178;2022-08-20T05:44:17;101345.09;;;18.08;74.73
43420;BME280;29017;51.514;-0.178;2022-08-20T05:46:45;101347.41;;;18.11;74.70
43420;BME280;29017;51.514;-0.178;2022-08-20T05:49:16;101340.41;;;18.10;74.49
43420;BME280;29017;51.514;-0.178;2022-08-20T05:51:45;101339.41;;;18.11;74.26
43420;BME280;29017;51.514;-0.178;2022-08-20T05:54:13;101342.91;;;18.12;74.38
43420;BME280;29017;51.514;-0.178;2022-08-20T05:56:40;101336.34;;;18.14;74.31
43420;BME280;29017;51.514;-0.178;2022-08-20T05:59:09;101339.84;;;18.15;74.09
43420;BME280;29017;51.514;-0.178;2022-08-20T06:01:38;101344.81;;;18.18;74.34
43420;BME280;29017;51.514;-0.178;2022-08-20T06:04:06;101341.94;;;18.19;74.44
43420;BME280;29017;51.514;-0.178;2022-08-20T06:07:01;101347.72;;;18.23;74.14
43420;BME280;29017;51.514;-0.178;2022-08-20T06:09:28;101340.56;;;18.23;74.27
43420;BME280;29017;51.514;-0.178;2022-08-20T06:12:06;101354.06;;;18.22;73.76
43420;BME280;29017;51.514;-0.178;2022-08-20T06:14:34;101352.41;;;18.21;73.77
43420;BME280;29017;51.514;-0.178;2022-08-20T06:17:10;101353.63;;;18.18;73.99
43420;BME280;29017;51.514;-0.178;2022-08-20T06:19:39;101352.16;;;18.16;74.12
43420;BME280;29017;51.514;-0.178;2022-08-20T06:22:10;101356.84;;;18.14;74.84
43420;BME280;29017;51.514;-0.178;2022-08-20T06:24:50;101359.13;;;18.17;74.49
43420;BME280;29017;51.514;-0.178;2022-08-20T06:27:18;101351.59;;;18.20;74.47
43420;BME280;29017;51.514;-0.178;2022-08-20T06:29:45;101359.59;;;18.20;74.54
43420;BME280;29017;51.514;-0.178;2022-08-20T06:32:13;101360.59;;;18.19;74.29
43420;BME280;29017;51.514;-0.178;2022-08-20T06:34:40;101361.66;;;18.25;74.74
43420;BME280;29017;51.514;-0.178;2022-08-20T06:37:19;101368.47;;;18.27;75.35
43420;BME280;29017;51.514;-0.178;2022-08-20T06:39:46;101367.91;;;18.32;74.99
43420;BME280;29017;51.514;-0.178;2022-08-20T06:42:13;101362.19;;;18.35;74.55
43420;BME280;29017;51.514;-0.178;2022-08-20T06:44:48;101364.28;;;18.39;74.54
43420;BME280;29017;51.514;-0.178;2022-08-20T06:47:19;101367.59;;;18.42;74.49
43420;BME280;29017;51.514;-0.178;2022-08-20T06:49:46;101369.25;;;18.43;74.29
43420;BME280;29017;51.514;-0.178;2022-08-20T06:52:14;101360.66;;;18.47;74.40
43420;BME280;29017;51.514;-0.178;2022-08-20T06:54:44;101363.75;;;18.51;74.26
43420;BME280;29017;51.514;-0.178;2022-08-20T06:57:11;101359.91;;;18.53;75.13
43420;BME280;29017;51.514;-0.178;2022-08-20T06:59:38;101357.25;;;18.53;74.66
43420;BME280;29017;51.514;-0.178;2022-08-20T07:02:08;101360.38;;;18.57;74.21
43420;BME280;29017;51.514;-0.178;2022-08-20T07:04:35;101353.03;;;18.59;74.66
43420;BME280;29017;51.514;-0.178;2022-08-20T07:07:03;101358.97;;;18.61;74.81
43420;BME280;29017;51.514;-0.178;2022-08-20T07:09:30;101360.44;;;18.63;74.25
43420;BME280;29017;51.514;-0.178;2022-08-20T07:11:57;101358.78;;;18.62;74.25
43420;BME280;29017;51.514;-0.178;2022-08-20T07:14:24;101354.72;;;18.66;74.29
43420;BME280;29017;51.514;-0.178;2022-08-20T07:16:51;101353.53;;;18.69;74.19
43420;BME280;29017;51.514;-0.178;2022-08-20T07:19:18;101355.13;;;18.70;74.10
43420;BME280;29017;51.514;-0.178;2022-08-20T07:21:45;101345.13;;;18.72;74.26
43420;BME280;29017;51.514;-0.178;2022-08-20T07:24:13;101345.94;;;18.72;74.23
43420;BME280;29017;51.514;-0.178;2022-08-20T07:26:40;101346.78;;;18.73;74.15
43420;BME280;29017;51.514;-0.178;2022-08-20T07:29:07;101344.09;;;18.73;73.93
43420;BME280;29017;51.514;-0.178;2022-08-20T07:31:34;101344.09;;;18.73;74.30
43420;BME280;29017;51.514;-0.178;2022-08-20T07:34:19;101347.59;;;18.73;74.52
43420;BME280;29017;51.514;-0.178;2022-08-20T07:36:46;101353.19;;;18.78;74.65
43420;BME280;29017;51.514;-0.178;2022-08-20T07:39:14;101353.44;;;18.84;74.47
43420;BME280;29017;51.514;-0.178;2022-08-20T07:41:42;101364.75;;;18.92;74.60
43420;BME280;29017;51.514;-0.178;2022-08-20T07:44:18;101367.50;;;18.99;74.73
43420;BME280;29017;51.514;-0.178;2022-08-20T07:46:57;101367.31;;;19.07;74.76
43420;BME280;29017;51.514;-0.178;2022-08-20T07:49:24;101364.91;;;19.12;74.67
43420;BME280;29017;51.514;-0.178;2022-08-20T07:51:51;101371.28;;;19.17;74.56
43420;BME280;29017;51.514;-0.178;2022-08-20T07:54:18;101374.03;;;19.24;74.36
43420;BME280;29017;51.514;-0.178;2022-08-20T07:56:45;101375.69;;;19.32;74.07
43420;BME280;29017;51.514;-0.178;2022-08-20T07:59:15;101365.25;;;19.37;73.77
43420;BME280;29017;51.514;-0.178;2022-08-20T08:01:41;101365.28;;;19.43;73.50
43420;BME280;29017;51.514;-0.178;2022-08-20T08:04:08;101371.72;;;19.49;73.22
43420;BME280;29017;51.514;-0.178;2022-08-20T08:06:35;101374.63;;;19.54;73.18
43420;BME280;29017;51.514;-0.178;2022-08-20T08:09:09;101365.19;;;19.58;74.06
43420;BME280;29017;51.514;-0.178;2022-08-20T08:11:39;101376.09;;;19.63;73.17
43420;BME280;29017;51.514;-0.178;2022-08-20T08:14:13;101364.81;;;19.68;73.09
43420;BME280;29017;51.514;-0.178;2022-08-20T08:16:41;101362.19;;;19.74;73.66
43420;BME280;29017;51.514;-0.178;2022-08-20T08:19:13;101363.41;;;19.78;73.22
43420;BME280;29017;51.514;-0.178;2022-08-20T08:21:41;101371.66;;;19.83;72.64
43420;BME280;29017;51.514;-0.178;2022-08-20T08:24:10;101373.53;;;19.89;72.62
43420;BME280;29017;51.514;-0.178;2022-08-20T08:26:44;101371.69;;;19.96;73.38
43420;BME280;29017;51.514;-0.178;2022-08-20T08:29:11;101363.09;;;20.01;72.97
43420;BME280;29017;51.514;-0.178;2022-08-20T08:31:39;101370.28;;;20.07;72.62
43420;BME280;29017;51.514;-0.178;2022-08-20T08:34:07;101355.53;;;20.11;71.80
43420;BME280;29017;51.514;-0.178;2022-08-20T08:36:34;101361.09;;;20.16;71.34
43420;BME280;29017;51.514;-0.178;2022-08-20T08:39:00;101359.41;;;20.22;71.09
43420;BME280;29017;51.514;-0.178;2022-08-20T08:41:38;101363.38;;;20.26;71.18
43420;BME280;29017;51.514;-0.178;2022-08-20T08:44:08;101361.28;;;20.28;71.21
43420;BME280;29017;51.514;-0.178;2022-08-20T08:46:41;101359.25;;;20.30;70.25
43420;BME280;29017;51.514;-0.178;2022-08-20T08:49:12;101361.97;;;20.36;70.54
43420;BME280;29017;51.514;-0.178;2022-08-20T08:54:15;101357.06;;;20.46;69.64
43420;BME280;29017;51.514;-0.178;2022-08-20T08:56:43;101362.19;;;20.55;69.16
43420;BME280;29017;51.514;-0.178;2022-08-20T08:59:17;101354.78;;;20.57;68.74
43420;BME280;29017;51.514;-0.178;2022-08-20T09:01:57;101355.41;;;20.65;68.96
43420;BME280;29017;51.514;-0.178;2022-08-20T09:04:37;101352.50;;;20.73;69.25
43420;BME280;29017;51.514;-0.178;2022-08-20T09:07:07;101351.28;;;20.82;68.88
43420;BME280;29017;51.514;-0.178;2022-08-20T09:09:40;101348.81;;;20.87;67.85
43420;BME280;29017;51.514;-0.178;2022-08-20T09:12:13;101353.53;;;20.92;66.69
43420;BME280;29017;51.514;-0.178;2022-08-20T09:14:40;101342.41;;;20.95;64.74
43420;BME280;29017;51.514;-0.178;2022-08-20T09:17:07;101351.66;;;20.99;64.37
43420;BME280;29017;51.514;-0.178;2022-08-20T09:19:34;101350.44;;;21.02;64.67
43420;BME280;29017;51.514;-0.178;2022-08-20T09:22:13;101353.09;;;21.08;65.08
43420;BME280;29017;51.514;-0.178;2022-08-20T09:24:41;101350.00;;;21.11;64.90
43420;BME280;29017;51.514;-0.178;2022-08-20T09:27:09;101355.97;;;21.13;64.38
43420;BME280;29017;51.514;-0.178;2022-08-20T09:29:36;101350.22;;;21.16;64.69
43420;BME280;29017;51.514;-0.178;2022-08-20T09:32:15;101348.38;;;21.17;64.97
43420;BME280;29017;51.514;-0.178;2022-08-20T09:34:46;101352.91;;;21.16;63.41
43420;BME280;29017;51.514;-0.178;2022-08-20T09:37:13;101350.03;;;21.18;63.80
43420;BME280;29017;51.514;-0.178;2022-08-20T09:39:41;101345.28;;;21.20;62.72
43420;BME280;29017;51.514;-0.178;2022-08-20T09:42:17;101358.06;;;21.18;62.83
43420;BME280;29017;51.514;-0.178;2022-08-20T09:44:44;101358.06;;;21.18;61.96
43420;BME280;29017;51.514;-0.178;2022-08-20T09:47:11;101355.16;;;21.13;62.26
43420;BME280;29017;51.514;-0.178;2022-08-20T09:49:39;101351.47;;;21.14;63.48
43420;BME280;29017;51.514;-0.178;2022-08-20T09:52:19;101353.31;;;21.20;63.79
43420;BME280;29017;51.514;-0.178;2022-08-20T09:54:47;101354.13;;;21.27;63.85
43420;BME280;29017;51.514;-0.178;2022-08-20T09:57:16;101349.78;;;21.32;63.61
43420;BME280;29017;51.514;-0.178;2022-08-20T09:59:54;101350.81;;;21.38;62.76
43420;BME280;29017;51.514;-0.178;2022-08-20T10:02:23;101341.72;;;21.39;62.90
43420;BME280;29017;51.514;-0.178;2022-08-20T10:04:50;101342.53;;;21.40;62.31
43420;BME280;29017;51.514;-0.178;2022-08-20T10:07:17;101337.38;;;21.45;61.80
43420;BME280;29017;51.514;-0.178;2022-08-20T10:09:44;101335.13;;;21.48;60.80
43420;BME280;29017;51.514;-0.178;2022-08-20T10:12:12;101326.44;;;21.53;61.71
43420;BME280;29017;51.514;-0.178;2022-08-20T10:14:39;101325.75;;;21.64;61.67
43420;BME280;29017;51.514;-0.178;2022-08-20T10:17:06;101328.19;;;21.72;61.19
43420;BME280;29017;51.514;-0.178;2022-08-20T10:19:33;101324.88;;;21.76;59.54
43420;BME280;29017;51.514;-0.178;2022-08-20T10:22:10;101326.09;;;21.81;59.19
43420;BME280;29017;51.514;-0.178;2022-08-20T10:24:38;101325.22;;;21.87;60.09
43420;BME280;29017;51.514;-0.178;2022-08-20T10:27:05;101320.06;;;21.98;64.53
43420;BME280;29017;51.514;-0.178;2022-08-20T10:29:32;101321.22;;;22.09;62.87
43420;BME280;29017;51.514;-0.178;2022-08-20T10:32:14;101318.06;;;22.18;63.12
43420;BME280;29017;51.514;-0.178;2022-08-20T10:34:43;101323.81;;;22.22;61.27
43420;BME280;29017;51.514;-0.178;2022-08-20T10:37:19;101316.78;;;22.21;60.14
43420;BME280;29017;51.514;-0.178;2022-08-20T10:39:47;101315.75;;;22.22;61.63
43420;BME280;29017;51.514;-0.178;2022-08-20T10:42:14;101316.22;;;22.19;58.79
43420;BME280;29017;51.514;-0.178;2022-08-20T10:44:41;101323.81;;;22.22;60.95
43420;BME280;29017;51.514;-0.178;2022-08-20T10:47:18;101317.19;;;22.25;60.54
43420;BME280;29017;51.514;-0.178;2022-08-20T10:49:47;101317.19;;;22.25;60.20
43420;BME280;29017;51.514;-0.178;2022-08-20T10:52:14;101326.03;;;22.25;59.01
43420;BME280;29017;51.514;-0.178;2022-08-20T10:54:41;101313.88;;;22.29;60.02
43420;BME280;29017;51.514;-0.178;2022-08-20T10:57:16;101318.56;;;22.34;59.31
43420;BME280;29017;51.514;-0.178;2022-08-20T10:59:45;101315.44;;;22.37;59.50
43420;BME280;29017;51.514;-0.178;2022-08-20T11:02:14;101307.19;;;22.38;58.76
43420;BME280;29017;51.514;-0.178;2022-08-20T11:04:42;101298.09;;;22.39;59.83
43420;BME280;29017;51.514;-0.178;2022-08-20T11:07:26;101302.41;;;22.40;58.80
43420;BME280;29017;51.514;-0.178;2022-08-20T11:10:13;101305.91;;;22.41;57.57
43420;BME280;29017;51.514;-0.178;2022-08-20T11:12:41;101302.66;;;22.39;57.15
43420;BME280;29017;51.514;-0.178;2022-08-20T11:15:12;101292.94;;;22.38;58.08
43420;BME280;29017;51.514;-0.178;2022-08-20T11:17:41;101294.34;;;22.40;58.71
43420;BME280;29017;51.514;-0.178;2022-08-20T11:20:10;101294.53;;;22.45;56.88
43420;BME280;29017;51.514;-0.178;2022-08-20T11:22:37;101298.44;;;22.49;55.41
43420;BME280;29017;51.514;-0.178;2022-08-20T11:25:05;101303.50;;;22.57;55.82
43420;BME280;29017;51.514;-0.178;2022-08-20T11:27:35;101291.91;;;22.64;56.37
43420;BME280;29017;51.514;-0.178;2022-08-20T11:30:06;101295.41;;;22.64;56.15
43420;BME280;29017;51.514;-0.178;2022-08-20T11:32:34;101292.88;;;22.69;56.21
43420;BME280;29017;51.514;-0.178;2022-08-20T11:35:02;101283.97;;;22.75;55.67
43420;BME280;29017;51.514;-0.178;2022-08-20T11:37:50;101288.69;;;22.80;55.93
43420;BME280;29017;51.514;-0.178;2022-08-20T11:40:17;101300.25;;;22.80;54.91
43420;BME280;29017;51.514;-0.178;2022-08-20T11:42:44;101293.91;;;22.75;55.11
43420;BME280;29017;51.514;-0.178;2022-08-20T11:45:33;101287.72;;;22.74;56.02
43420;BME280;29017;51.514;-0.178;2022-08-20T11:48:03;101284.19;;;22.74;57.62
43420;BME280;29017;51.514;-0.178;2022-08-20T11:50:33;101291.63;;;22.72;57.71
43420;BME280;29017;51.514;-0.178;2022-08-20T11:53:00;101285.03;;;22.68;55.79
43420;BME280;29017;51.514;-0.178;2022-08-20T11:55:27;101287.13;;;22.66;57.25
43420;BME280;29017;51.514;-0.178;2022-08-20T11:57:57;101288.19;;;22.65;56.30
43420;BME280;29017;51.514;-0.178;2022-08-20T12:00:27;101278.28;;;22.65;55.48
43420;BME280;29017;51.514;-0.178;2022-08-20T12:03:00;101285.88;;;22.68;56.40
43420;BME280;29017;51.514;-0.178;2022-08-20T12:05:27;101277.81;;;22.68;55.21
43420;BME280;29017;51.514;-0.178;2022-08-20T12:07:56;101284.00;;;22.69;55.61
43420;BME280;29017;51.514;-0.178;2022-08-20T12:10:25;101283.19;;;22.68;54.34
43420;BME280;29017;51.514;-0.178;2022-08-20T12:12:54;101294.31;;;22.72;54.94
43420;BME280;29017;51.514;-0.178;2022-08-20T12:15:22;101285.22;;;22.73;56.50
43420;BME280;29017;51.514;-0.178;2022-08-20T12:17:51;101298.44;;;22.74;56.03
43420;BME280;29017;51.514;-0.178;2022-08-20T12:20:18;101288.28;;;22.76;54.33
43420;BME280;29017;51.514;-0.178;2022-08-20T12:22:45;101287.63;;;22.81;53.30
43420;BME280;29017;51.514;-0.178;2022-08-20T12:25:12;101289.25;;;22.82;53.60
43420;BME280;29017;51.514;-0.178;2022-08-20T12:27:40;101293.38;;;22.84;54.44
43420;BME280;29017;51.514;-0.178;2022-08-20T12:30:11;101288.03;;;22.84;53.18
43420;BME280;29017;51.514;-0.178;2022-08-20T12:32:38;101284.66;;;22.89;52.96
43420;BME280;29017;51.514;-0.178;2022-08-20T12:35:07;101281.53;;;22.92;53.21
43420;BME280;29017;51.514;-0.178;2022-08-20T12:37:34;101283.78;;;22.95;53.78
43420;BME280;29017;51.514;-0.178;2022-08-20T12:40:04;101278.63;;;22.93;53.06
43420;BME280;29017;51.514;-0.178;2022-08-20T12:42:32;101279.09;;;22.90;54.50
43420;BME280;29017;51.514;-0.178;2022-08-20T12:44:59;101280.69;;;22.91;54.53
43420;BME280;29017;51.514;-0.178;2022-08-20T12:47:32;101277.81;;;22.93;54.12
43420;BME280;29017;51.514;-0.178;2022-08-20T12:50:12;101284.34;;;22.97;53.94
43420;BME280;29017;51.514;-0.178;2022-08-20T12:52:40;101278.94;;;23.03;54.00
43420;BME280;29017;51.514;-0.178;2022-08-20T12:55:08;101279.28;;;23.07;52.69
43420;BME280;29017;51.514;-0.178;2022-08-20T12:57:47;101278.47;;;23.07;53.12
43420;BME280;29017;51.514;-0.178;2022-08-20T13:00:32;101277.88;;;23.05;52.87
43420;BME280;29017;51.514;-0.178;2022-08-20T13:03:01;101281.41;;;23.05;54.12
43420;BME280;29017;51.514;-0.178;2022-08-20T13:05:30;101282.22;;;23.06;53.31
43420;BME280;29017;51.514;-0.178;2022-08-20T13:07:57;101277.63;;;23.06;54.01
43420;BME280;29017;51.514;-0.178;2022-08-20T13:10:30;101278.84;;;23.10;53.68
43420;BME280;29017;51.514;-0.178;2022-08-20T13:12:58;101272.22;;;23.13;53.46